KBRL/BRL METAR and TAF weather

Enter ICAO airport designator
Station Type Date Time Source
KBRL METAR 2022/01/25 04:53 UTC NOAA

KBRL 250453Z AUTO 33007KT 10SM CLR M13/M17 A3012 RMK AO2 SLP211 T11331172


Station Type Date Time Source
KBRL Decoded METAR 2022/01/25 04:53 UTC NOAA

BURLINGTON REGIONAL AIRPORT, IA, United States (KBRL) 40-46N 91-08W 211M
Jan 24, 2022 - 11:53 PM EST / 2022.01.25 0453 UTC
Wind: from the NNW (330 degrees) at 8 MPH (7 KT):0
Visibility: 10 mile(s):0
Sky conditions: clear
Temperature: 8.1 F (-13.3 C)
Windchill: -4 F (-20 C):1
Dew Point: 1.0 F (-17.2 C)
Relative Humidity: 72%
Pressure (altimeter): 30.12 in. Hg (1019 hPa)
ob: KBRL 250453Z AUTO 33007KT 10SM CLR M13/M17 A3012 RMK AO2 SLP211 T11331172
cycle: 5

Station Type Date Time Source
KBRL TAF 2022/01/25 06:22 UTC NOAA

TAF KBRL 250520Z 2506/2606 34008KT P6SM SKC

Example: see airport list